Time;durP1;ratioP1;P1;durP2;ratioP2;P2;SDS_P1;SDS_P2;PMS_P1;PMS_P2;Temp;Humidity;BMP_temperature;BMP_pressure;BME280_temperature;BME280_humidity;BME280_pressure;Samples;Min_cycle;Max_cycle;Signal;HPM_P1;HPM_P2
2021/06/29 00:04:02;;;;;;;6.80;4.32;;;;;;;;;;10437526;28;20049;-53
2021/06/29 00:09:03;;;;;;;5.28;3.67;;;;;;;;;;10421174;28;20548;-52
2021/06/29 00:14:06;;;;;;;8.35;4.53;;;;;;;;;;10413563;28;20056;-50
2021/06/29 00:19:07;;;;;;;9.68;4.60;;;;;;;;;;10439730;28;20052;-48
2021/06/29 00:24:09;;;;;;;9.25;3.50;;;;;;;;;;10434269;28;20136;-52
2021/06/29 00:29:10;;;;;;;8.30;4.22;;;;;;;;;;10438137;28;20145;-54
2021/06/29 00:34:12;;;;;;;7.72;4.20;;;;;;;;;;10442027;28;20132;-51
2021/06/29 00:39:14;;;;;;;6.88;3.85;;;;;;;;;;10427008;28;20088;-54
2021/06/29 00:44:22;;;;;;;9.55;4.60;;;;;;;;;;10407242;28;20064;-53
2021/06/29 00:49:23;;;;;;;10.10;4.28;;;;;;;;;;10443526;28;20127;-52
2021/06/29 00:54:25;;;;;;;8.23;4.50;;;;;;;;;;10433584;28;20049;-51
2021/06/29 00:59:26;;;;;;;8.73;4.60;;;;;;;;;;10435769;28;20139;-53
2021/06/29 01:04:28;;;;;;;9.60;4.20;;;;;;;;;;10438145;28;20055;-54
2021/06/29 01:09:30;;;;;;;8.43;4.88;;;;;;;;;;10434610;28;20077;-53
2021/06/29 01:14:32;;;;;;;11.45;5.30;;;;;;;;;;10437030;28;20128;-54
2021/06/29 01:19:40;;;;;;;9.27;4.10;;;;;;;;;;10442013;28;20594;-53
2021/06/29 01:24:51;;;;;;;6.63;4.25;;;;;;;;;;10427581;28;20061;-51
2021/06/29 01:34:56;;;;;;;9.65;4.43;;;;;;;;;;10420921;28;20156;-52
2021/06/29 01:45:09;;;;;;;9.73;5.20;;;;;;;;;;10438488;28;20059;-53
2021/06/29 01:50:14;;;;;;;8.25;4.72;;;;;;;;;;10450505;28;20129;-54
2021/06/29 01:55:16;;;;;;;5.75;4.28;;;;;;;;;;10424850;28;20194;-54
2021/06/29 02:00:18;;;;;;;8.30;5.00;;;;;;;;;;10438561;28;20473;-54
2021/06/29 02:05:20;;;;;;;7.82;3.92;;;;;;;;;;10441787;28;20529;-54
2021/06/29 02:10:21;;;;;;;10.13;4.35;;;;;;;;;;10448535;28;20045;-53
2021/06/29 02:15:23;;;;;;;8.15;3.97;;;;;;;;;;10446430;28;20088;-53
2021/06/29 02:20:27;;;;;;;8.57;4.10;;;;;;;;;;10452301;28;20132;-54
2021/06/29 02:25:29;;;;;;;7.97;4.45;;;;;;;;;;10443210;28;20131;-51
2021/06/29 02:30:31;;;;;;;8.35;5.38;;;;;;;;;;10405845;28;20136;-52
2021/06/29 02:35:32;;;;;;;9.25;5.53;;;;;;;;;;10451047;28;20128;-51
2021/06/29 02:40:34;;;;;;;6.05;4.97;;;;;;;;;;10455093;28;20075;-53
2021/06/29 02:45:35;;;;;;;9.88;5.28;;;;;;;;;;10452177;28;20139;-55
2021/06/29 02:50:37;;;;;;;8.07;5.05;;;;;;;;;;10451075;28;20055;-52
2021/06/29 02:55:39;;;;;;;9.48;4.30;;;;;;;;;;10450029;28;20132;-52
2021/06/29 03:00:40;;;;;;;9.07;4.50;;;;;;;;;;10433612;28;20056;-52
2021/06/29 03:05:42;;;;;;;8.27;5.47;;;;;;;;;;10441753;28;20147;-54
2021/06/29 03:10:43;;;;;;;12.02;4.78;;;;;;;;;;10436672;28;20119;-54
2021/06/29 03:15:45;;;;;;;7.60;4.00;;;;;;;;;;10422703;28;20059;-54
2021/06/29 03:20:46;;;;;;;9.38;5.47;;;;;;;;;;10418811;28;20135;-52
2021/06/29 03:25:49;;;;;;;11.90;5.72;;;;;;;;;;10435479;28;20557;-53
2021/06/29 03:30:50;;;;;;;11.55;5.18;;;;;;;;;;10422235;28;20144;-54
2021/06/29 03:35:52;;;;;;;6.97;4.15;;;;;;;;;;10444624;28;20049;-53
2021/06/29 03:40:53;;;;;;;10.48;5.88;;;;;;;;;;10443794;28;20132;-53
2021/06/29 03:45:55;;;;;;;13.48;5.40;;;;;;;;;;10433231;28;20139;-54
2021/06/29 03:50:56;;;;;;;9.13;6.05;;;;;;;;;;10441632;28;20055;-52
2021/06/29 03:55:58;;;;;;;8.05;4.38;;;;;;;;;;10442720;28;20243;-52
2021/06/29 04:01:00;;;;;;;15.27;5.47;;;;;;;;;;10432587;28;20134;-50
2021/06/29 04:06:01;;;;;;;8.60;3.85;;;;;;;;;;10423355;28;20060;-52
2021/06/29 04:11:03;;;;;;;8.35;4.45;;;;;;;;;;10440520;28;20084;-53
2021/06/29 04:16:04;;;;;;;9.32;4.28;;;;;;;;;;10446264;28;20063;-53
2021/06/29 04:21:06;;;;;;;12.57;4.97;;;;;;;;;;10436516;28;20063;-53
2021/06/29 04:26:07;;;;;;;9.55;4.90;;;;;;;;;;10422653;28;20053;-54
2021/06/29 04:31:09;;;;;;;13.63;4.30;;;;;;;;;;10423797;28;20135;-54
2021/06/29 04:36:10;;;;;;;10.38;4.63;;;;;;;;;;10444916;28;20136;-54
2021/06/29 04:41:12;;;;;;;10.32;4.07;;;;;;;;;;10442276;28;20128;-52
2021/06/29 04:46:13;;;;;;;12.98;3.95;;;;;;;;;;10417985;28;20081;-52
2021/06/29 04:51:15;;;;;;;8.88;5.32;;;;;;;;;;10436794;28;20048;-51
2021/06/29 04:56:17;;;;;;;10.57;5.40;;;;;;;;;;10431535;28;20049;-53
2021/06/29 05:01:19;;;;;;;14.30;4.93;;;;;;;;;;10423597;28;20128;-52
2021/06/29 05:06:21;;;;;;;11.75;4.80;;;;;;;;;;10434818;28;20044;-54
2021/06/29 05:11:23;;;;;;;13.07;4.95;;;;;;;;;;10418351;28;20124;-51
2021/06/29 05:16:24;;;;;;;10.32;5.20;;;;;;;;;;10438104;28;20131;-52
2021/06/29 05:21:26;;;;;;;16.73;5.82;;;;;;;;;;10442649;28;20135;-52
2021/06/29 05:26:28;;;;;;;8.43;5.32;;;;;;;;;;10440010;28;20430;-52
2021/06/29 05:31:29;;;;;;;18.08;5.82;;;;;;;;;;10416711;28;20053;-53
2021/06/29 05:36:31;;;;;;;9.20;5.80;;;;;;;;;;10414085;28;20053;-53
2021/06/29 05:41:32;;;;;;;10.48;4.78;;;;;;;;;;10407626;28;20051;-53
2021/06/29 05:46:34;;;;;;;11.10;4.50;;;;;;;;;;10435827;28;20386;-53
2021/06/29 05:51:36;;;;;;;15.75;4.65;;;;;;;;;;10433441;28;20410;-52
2021/06/29 05:56:40;;;;;;;14.27;4.82;;;;;;;;;;10440685;28;20393;-54
2021/06/29 06:01:41;;;;;;;9.82;5.03;;;;;;;;;;10430331;28;20045;-51
2021/06/29 06:06:44;;;;;;;10.02;4.60;;;;;;;;;;10425033;28;20049;-52
2021/06/29 06:11:49;;;;;;;13.85;4.32;;;;;;;;;;10422189;28;20077;-52
2021/06/29 06:16:50;;;;;;;8.43;3.90;;;;;;;;;;10433647;28;20067;-53
2021/06/29 06:21:52;;;;;;;7.43;3.70;;;;;;;;;;10434481;28;20041;-50
2021/06/29 06:26:54;;;;;;;6.97;3.45;;;;;;;;;;10437429;28;20045;-53
2021/06/29 06:31:55;;;;;;;6.97;3.67;;;;;;;;;;10432278;28;20675;-53
2021/06/29 06:36:57;;;;;;;6.28;3.05;;;;;;;;;;10445341;28;20053;-54
2021/06/29 06:41:58;;;;;;;5.35;2.95;;;;;;;;;;10419183;28;20432;-51
2021/06/29 06:47:00;;;;;;;9.02;2.88;;;;;;;;;;10433477;28;20524;-54
2021/06/29 06:52:02;;;;;;;4.80;2.60;;;;;;;;;;10437217;28;20044;-53
2021/06/29 06:57:03;;;;;;;5.38;2.58;;;;;;;;;;10443074;28;20049;-53
2021/06/29 07:02:05;;;;;;;3.92;2.45;;;;;;;;;;10427066;28;20129;-52
2021/06/29 07:07:06;;;;;;;8.38;2.67;;;;;;;;;;10399461;28;20517;-51
2021/06/29 07:12:08;;;;;;;3.97;2.40;;;;;;;;;;10397655;28;20092;-49
2021/06/29 07:17:10;;;;;;;7.47;2.38;;;;;;;;;;10434565;28;20132;-48
2021/06/29 07:22:11;;;;;;;4.57;2.20;;;;;;;;;;10432014;28;20572;-49
2021/06/29 07:27:13;;;;;;;5.40;2.15;;;;;;;;;;10426076;28;20041;-52
2021/06/29 07:32:14;;;;;;;5.10;2.28;;;;;;;;;;10417814;28;20555;-52
2021/06/29 07:37:16;;;;;;;5.18;2.20;;;;;;;;;;10419480;28;20413;-48
2021/06/29 07:42:19;;;;;;;3.28;2.13;;;;;;;;;;10415533;28;20041;-53
2021/06/29 07:47:20;;;;;;;6.28;2.30;;;;;;;;;;10413741;28;20071;-55
2021/06/29 07:52:22;;;;;;;4.00;2.00;;;;;;;;;;10442941;28;20049;-50
2021/06/29 07:57:23;;;;;;;4.18;2.05;;;;;;;;;;10411612;28;20059;-54
2021/06/29 08:02:25;;;;;;;5.70;2.22;;;;;;;;;;10415086;28;20494;-51
2021/06/29 08:07:29;;;;;;;7.18;1.90;;;;;;;;;;10437592;28;20056;-53
2021/06/29 08:12:31;;;;;;;2.90;1.70;;;;;;;;;;10432625;28;20129;-61
2021/06/29 08:17:33;;;;;;;3.15;1.75;;;;;;;;;;10420304;28;20041;-60
2021/06/29 08:22:34;;;;;;;4.30;1.80;;;;;;;;;;10436048;28;20047;-60
2021/06/29 08:27:37;;;;;;;7.25;1.92;;;;;;;;;;10427230;28;20136;-62
2021/06/29 08:32:39;;;;;;;2.80;1.70;;;;;;;;;;10427347;28;20140;-61
2021/06/29 08:37:41;;;;;;;2.83;1.58;;;;;;;;;;10425285;28;20070;-59
2021/06/29 08:42:43;;;;;;;2.80;1.70;;;;;;;;;;10405605;28;20132;-60
2021/06/29 08:47:44;;;;;;;5.55;1.67;;;;;;;;;;10413256;28;20412;-60
2021/06/29 08:52:46;;;;;;;4.65;1.70;;;;;;;;;;10406904;28;20045;-61
2021/06/29 08:57:47;;;;;;;3.13;1.55;;;;;;;;;;10424087;28;20045;-61
2021/06/29 09:02:49;;;;;;;4.85;1.60;;;;;;;;;;10429810;28;20048;-60
2021/06/29 09:08:03;;;;;;;5.10;1.60;;;;;;;;;;10428130;28;20060;-61
2021/06/29 09:13:05;;;;;;;4.85;1.50;;;;;;;;;;10441687;28;20059;-61
2021/06/29 09:18:13;;;;;;;6.35;2.00;;;;;;;;;;10430272;28;20052;-61
2021/06/29 09:23:17;;;;;;;6.72;1.70;;;;;;;;;;10431100;28;20493;-61
2021/06/29 09:28:20;;;;;;;3.50;1.80;;;;;;;;;;10429369;28;20057;-61
2021/06/29 09:33:26;;;;;;;3.13;1.50;;;;;;;;;;10403745;28;20052;-61
2021/06/29 09:38:33;;;;;;;2.58;1.55;;;;;;;;;;10421984;28;20145;-61
2021/06/29 09:43:38;;;;;;;4.35;1.70;;;;;;;;;;10419576;28;20049;-60
2021/06/29 09:48:39;;;;;;;2.63;1.50;;;;;;;;;;10431533;28;20140;-61
2021/06/29 09:53:42;;;;;;;3.80;1.77;;;;;;;;;;10430188;28;20139;-61
2021/06/29 09:58:51;;;;;;;3.33;1.50;;;;;;;;;;10445027;28;20053;-61
2021/06/29 10:03:53;;;;;;;11.25;1.80;;;;;;;;;;10442141;28;20049;-61
2021/06/29 10:09:03;;;;;;;3.53;1.30;;;;;;;;;;10441370;28;20059;-61
2021/06/29 10:14:06;;;;;;;3.58;1.40;;;;;;;;;;10439333;28;20501;-61
2021/06/29 10:24:14;;;;;;;4.20;1.50;;;;;;;;;;10420468;28;20576;-60
2021/06/29 10:29:17;;;;;;;3.13;1.30;;;;;;;;;;10445358;28;20053;-61
2021/06/29 10:34:20;;;;;;;3.08;1.38;;;;;;;;;;10447428;28;20099;-61
2021/06/29 10:39:24;;;;;;;1.77;1.30;;;;;;;;;;10445968;28;20128;-61
2021/06/29 10:44:26;;;;;;;3.15;1.30;;;;;;;;;;10449169;28;20125;-61
2021/06/29 10:49:42;;;;;;;5.38;1.40;;;;;;;;;;10446416;28;20044;-61
2021/06/29 10:54:46;;;;;;;3.92;1.50;;;;;;;;;;10447905;28;20572;-60
2021/06/29 10:59:49;;;;;;;4.28;1.50;;;;;;;;;;10450322;28;20128;-60
2021/06/29 11:05:08;;;;;;;2.30;1.50;;;;;;;;;;10441931;28;20057;-60
2021/06/29 11:10:26;;;;;;;2.22;1.30;;;;;;;;;;10448893;28;20049;-61
2021/06/29 11:15:43;;;;;;;1.40;1.13;;;;;;;;;;10445693;28;20135;-61
2021/06/29 11:20:46;;;;;;;3.00;1.40;;;;;;;;;;10446553;28;20061;-60
2021/06/29 11:25:55;;;;;;;4.00;1.40;;;;;;;;;;10446622;28;20051;-60
2021/06/29 11:31:19;;;;;;;3.20;1.23;;;;;;;;;;10403129;28;20067;-60
2021/06/29 11:36:24;;;;;;;1.95;1.30;;;;;;;;;;10445661;28;20068;-60
2021/06/29 11:41:33;;;;;;;3.60;1.30;;;;;;;;;;10445151;28;20124;-61
2021/06/29 11:46:52;;;;;;;1.85;1.20;;;;;;;;;;10445030;28;20049;-60
2021/06/29 11:51:55;;;;;;;2.10;1.50;;;;;;;;;;10449784;28;20045;-61
2021/06/29 11:56:57;;;;;;;2.58;1.30;;;;;;;;;;10434775;28;20061;-61
2021/06/29 12:02:03;;;;;;;2.15;1.45;;;;;;;;;;10441861;28;20559;-60
2021/06/29 12:07:05;;;;;;;3.00;1.40;;;;;;;;;;10431248;28;20139;-60
2021/06/29 12:12:24;;;;;;;5.93;1.58;;;;;;;;;;10441538;28;20412;-60
2021/06/29 12:17:26;;;;;;;2.40;1.60;;;;;;;;;;10448326;28;20141;-60
2021/06/29 12:22:32;;;;;;;3.63;1.60;;;;;;;;;;10441824;28;20063;-60
2021/06/29 12:27:41;;;;;;;2.83;1.30;;;;;;;;;;10444561;28;20049;-60
2021/06/29 12:32:43;;;;;;;3.05;1.50;;;;;;;;;;10435446;28;20061;-60
2021/06/29 12:37:52;;;;;;;2.83;1.23;;;;;;;;;;10443229;28;20153;-60
2021/06/29 12:42:54;;;;;;;2.58;1.30;;;;;;;;;;10444906;28;20091;-60
2021/06/29 12:48:07;;;;;;;2.60;1.25;;;;;;;;;;10443323;28;20049;-60
2021/06/29 12:53:08;;;;;;;2.35;1.30;;;;;;;;;;10443548;28;20052;-60
2021/06/29 12:58:11;;;;;;;2.65;1.35;;;;;;;;;;10433718;28;20497;-60
2021/06/29 13:03:13;;;;;;;4.05;1.55;;;;;;;;;;10429923;28;20476;-60
2021/06/29 13:08:16;;;;;;;4.03;1.80;;;;;;;;;;10421587;28;20497;-60
2021/06/29 13:13:22;;;;;;;3.20;1.60;;;;;;;;;;10434521;28;20414;-60
2021/06/29 13:18:30;;;;;;;5.80;1.65;;;;;;;;;;10437801;28;20045;-60
2021/06/29 13:23:35;;;;;;;3.38;1.55;;;;;;;;;;10440352;28;20196;-60
2021/06/29 13:28:42;;;;;;;2.47;1.50;;;;;;;;;;10445684;28;20140;-61
2021/06/29 13:33:43;;;;;;;5.10;1.58;;;;;;;;;;10437450;28;20045;-60
2021/06/29 13:38:58;;;;;;;3.60;1.65;;;;;;;;;;10443731;28;20053;-61
2021/06/29 13:44:10;;;;;;;5.72;1.60;;;;;;;;;;10442990;28;20049;-60
2021/06/29 13:49:13;;;;;;;6.35;1.60;;;;;;;;;;10439780;28;20073;-61
2021/06/29 13:54:20;;;;;;;3.88;1.55;;;;;;;;;;10442462;28;20081;-60
2021/06/29 13:59:29;;;;;;;2.47;1.50;;;;;;;;;;10444126;28;20124;-61
2021/06/29 14:04:52;;;;;;;2.47;1.50;;;;;;;;;;10443255;28;20511;-60
2021/06/29 14:09:53;;;;;;;3.03;1.52;;;;;;;;;;10447630;28;20133;-61
2021/06/29 14:15:07;;;;;;;1.80;1.30;;;;;;;;;;10448966;28;20045;-60
2021/06/29 14:20:09;;;;;;;2.53;1.48;;;;;;;;;;10449102;28;20079;-61
2021/06/29 14:25:11;;;;;;;6.32;1.50;;;;;;;;;;10451340;28;20140;-61
2021/06/29 14:30:12;;;;;;;3.42;1.50;;;;;;;;;;10464653;28;20075;-61
2021/06/29 14:35:14;;;;;;;3.15;1.40;;;;;;;;;;10448638;28;20057;-60
2021/06/29 14:40:16;;;;;;;6.20;1.45;;;;;;;;;;10447476;28;20576;-60
2021/06/29 14:45:17;;;;;;;3.92;1.50;;;;;;;;;;10446349;28;20132;-60
2021/06/29 14:50:19;;;;;;;5.45;1.60;;;;;;;;;;10446088;28;20068;-60
2021/06/29 14:55:21;;;;;;;7.38;1.60;;;;;;;;;;10449756;28;20519;-60
2021/06/29 15:00:27;;;;;;;4.22;1.50;;;;;;;;;;10446251;28;20528;-60
2021/06/29 15:05:28;;;;;;;8.15;1.75;;;;;;;;;;10429617;28;20045;-60
2021/06/29 15:10:30;;;;;;;3.70;1.48;;;;;;;;;;10421569;28;20525;-59
2021/06/29 15:15:32;;;;;;;6.68;1.63;;;;;;;;;;10446656;28;20052;-59
2021/06/29 15:20:34;;;;;;;16.00;1.85;;;;;;;;;;10447604;28;20552;-60
2021/06/29 15:25:39;;;;;;;10.45;1.40;;;;;;;;;;10445664;28;20361;-60
2021/06/29 15:30:41;;;;;;;11.98;1.85;;;;;;;;;;10449380;28;20057;-60
2021/06/29 15:35:44;;;;;;;7.35;2.00;;;;;;;;;;10442145;28;20058;-60
2021/06/29 15:40:46;;;;;;;8.90;1.65;;;;;;;;;;10440209;28;20569;-60
2021/06/29 15:45:48;;;;;;;9.48;1.98;;;;;;;;;;10447546;28;20452;-60
2021/06/29 15:50:52;;;;;;;11.48;1.80;;;;;;;;;;10443334;28;20041;-60
2021/06/29 15:55:54;;;;;;;4.82;1.70;;;;;;;;;;10432365;28;20144;-60
2021/06/29 16:00:56;;;;;;;8.13;1.88;;;;;;;;;;10448930;28;20143;-60
2021/06/29 16:05:57;;;;;;;5.40;1.70;;;;;;;;;;10425752;28;20056;-60
2021/06/29 16:10:59;;;;;;;3.65;1.50;;;;;;;;;;10446398;28;20409;-60
2021/06/29 16:16:01;;;;;;;4.75;1.50;;;;;;;;;;10445385;28;20088;-60
2021/06/29 16:21:03;;;;;;;4.28;1.60;;;;;;;;;;10442176;28;20049;-60
2021/06/29 16:26:05;;;;;;;4.30;1.60;;;;;;;;;;10441235;28;20049;-60
2021/06/29 16:31:08;;;;;;;7.07;2.00;;;;;;;;;;10445305;28;20049;-60
2021/06/29 16:36:10;;;;;;;5.30;2.00;;;;;;;;;;10420999;28;20053;-60
2021/06/29 16:41:11;;;;;;;4.30;1.70;;;;;;;;;;10422595;28;20049;-60
2021/06/29 16:46:13;;;;;;;3.85;1.50;;;;;;;;;;10445686;28;20128;-60
2021/06/29 16:51:15;;;;;;;18.20;2.25;;;;;;;;;;10441450;28;20414;-60
2021/06/29 16:56:20;;;;;;;4.70;1.77;;;;;;;;;;10436686;28;20497;-60
2021/06/29 17:01:23;;;;;;;5.05;1.60;;;;;;;;;;10445766;28;20136;-60
2021/06/29 17:06:25;;;;;;;3.90;1.58;;;;;;;;;;10420740;28;20049;-60
2021/06/29 17:11:27;;;;;;;7.18;2.15;;;;;;;;;;10439212;28;20063;-60
2021/06/29 17:16:30;;;;;;;3.83;1.63;;;;;;;;;;10444901;28;20088;-60
2021/06/29 17:21:32;;;;;;;5.63;1.88;;;;;;;;;;10440676;28;20099;-60
2021/06/29 17:26:34;;;;;;;4.13;1.63;;;;;;;;;;10446575;28;20591;-60
2021/06/29 17:31:36;;;;;;;4.65;1.70;;;;;;;;;;10439773;28;20060;-60
2021/06/29 17:36:37;;;;;;;3.78;1.85;;;;;;;;;;10439354;28;20085;-60
2021/06/29 17:41:39;;;;;;;8.85;2.00;;;;;;;;;;10443575;28;20132;-60
2021/06/29 17:46:40;;;;;;;5.13;2.03;;;;;;;;;;10441558;28;20128;-61
2021/06/29 17:51:42;;;;;;;5.00;1.98;;;;;;;;;;10442990;28;20516;-60
2021/06/29 17:56:44;;;;;;;4.93;1.70;;;;;;;;;;10440159;28;20053;-60
2021/06/29 18:01:46;;;;;;;6.00;1.90;;;;;;;;;;10441556;28;20051;-60
2021/06/29 18:06:48;;;;;;;3.92;1.90;;;;;;;;;;10420128;28;20045;-60
2021/06/29 18:11:50;;;;;;;4.53;1.60;;;;;;;;;;10415398;28;20056;-60
2021/06/29 18:16:51;;;;;;;4.45;2.08;;;;;;;;;;10435460;28;20053;-60
2021/06/29 18:21:53;;;;;;;4.15;1.90;;;;;;;;;;10437222;28;20132;-60
2021/06/29 18:26:54;;;;;;;4.20;1.80;;;;;;;;;;10439057;28;20140;-60
2021/06/29 18:31:56;;;;;;;5.30;1.83;;;;;;;;;;10442822;28;20303;-60
2021/06/29 18:36:57;;;;;;;2.47;1.40;;;;;;;;;;10439021;28;20051;-60
2021/06/29 18:42:05;;;;;;;4.47;1.70;;;;;;;;;;10433768;28;20052;-60
2021/06/29 18:47:07;;;;;;;4.60;1.63;;;;;;;;;;10440845;28;20051;-60
2021/06/29 18:52:10;;;;;;;2.92;1.70;;;;;;;;;;10445777;28;20056;-60
2021/06/29 18:57:12;;;;;;;5.90;1.98;;;;;;;;;;10433533;28;20084;-60
2021/06/29 19:02:13;;;;;;;4.50;1.75;;;;;;;;;;10406891;28;20049;-60
2021/06/29 19:07:15;;;;;;;7.35;1.80;;;;;;;;;;10445608;28;20417;-60
2021/06/29 19:12:16;;;;;;;3.13;1.70;;;;;;;;;;10437787;28;20041;-59
2021/06/29 19:17:18;;;;;;;5.75;1.90;;;;;;;;;;10418412;28;20140;-60
2021/06/29 19:22:20;;;;;;;10.45;1.85;;;;;;;;;;10405943;28;20103;-59
2021/06/29 19:27:21;;;;;;;7.47;1.83;;;;;;;;;;10416068;28;20061;-60
2021/06/29 19:32:24;;;;;;;4.90;1.58;;;;;;;;;;10435982;28;20049;-60
2021/06/29 19:37:25;;;;;;;4.68;1.70;;;;;;;;;;10446305;28;20501;-59
2021/06/29 19:42:27;;;;;;;4.70;1.75;;;;;;;;;;10436169;28;20047;-60
2021/06/29 19:47:29;;;;;;;3.78;1.70;;;;;;;;;;10435022;28;20146;-60
2021/06/29 19:52:30;;;;;;;3.53;1.52;;;;;;;;;;10401789;28;20100;-59
2021/06/29 19:57:32;;;;;;;4.97;1.50;;;;;;;;;;10422167;28;20405;-59
2021/06/29 20:02:34;;;;;;;2.90;1.48;;;;;;;;;;10429248;28;20072;-59
2021/06/29 20:07:35;;;;;;;9.32;1.77;;;;;;;;;;10446866;28;20057;-59
2021/06/29 20:12:38;;;;;;;2.47;1.50;;;;;;;;;;10439168;28;20893;-60
2021/06/29 20:17:40;;;;;;;4.53;1.70;;;;;;;;;;10443308;28;20041;-60
2021/06/29 20:22:42;;;;;;;5.10;1.90;;;;;;;;;;10446382;28;20132;-60
2021/06/29 20:27:44;;;;;;;3.97;1.92;;;;;;;;;;10438620;28;20045;-60
2021/06/29 20:32:45;;;;;;;5.13;1.80;;;;;;;;;;10444193;28;20132;-60
2021/06/29 20:37:49;;;;;;;3.30;1.52;;;;;;;;;;10442909;28;20139;-60
2021/06/29 20:42:51;;;;;;;3.97;1.80;;;;;;;;;;10427016;28;20041;-59
2021/06/29 20:47:52;;;;;;;4.60;1.60;;;;;;;;;;10443420;28;20093;-60
2021/06/29 20:52:55;;;;;;;6.03;1.77;;;;;;;;;;10440236;28;20048;-61
2021/06/29 20:57:57;;;;;;;3.95;1.73;;;;;;;;;;10438382;28;20136;-59
2021/06/29 21:02:59;;;;;;;4.82;1.90;;;;;;;;;;10430976;28;20128;-59
2021/06/29 21:08:00;;;;;;;9.55;2.40;;;;;;;;;;10418472;28;20049;-59
2021/06/29 21:13:02;;;;;;;7.72;1.98;;;;;;;;;;10400726;28;20148;-48
2021/06/29 21:18:08;;;;;;;4.75;2.00;;;;;;;;;;10401792;28;20049;-47
2021/06/29 21:23:15;;;;;;;5.97;2.00;;;;;;;;;;10402908;28;20332;-49
2021/06/29 21:28:22;;;;;;;6.85;1.95;;;;;;;;;;10407876;28;20118;-54
2021/06/29 21:33:33;;;;;;;5.45;1.75;;;;;;;;;;10419660;28;20073;-54
2021/06/29 21:38:41;;;;;;;9.02;2.05;;;;;;;;;;10410419;28;20144;-50
2021/06/29 21:43:48;;;;;;;6.28;2.03;;;;;;;;;;10401840;28;20949;-58
2021/06/29 21:48:54;;;;;;;5.40;2.10;;;;;;;;;;10422660;28;20085;-55
2021/06/29 21:54:01;;;;;;;6.75;1.92;;;;;;;;;;10410424;28;20092;-54
2021/06/29 21:59:07;;;;;;;6.68;2.03;;;;;;;;;;10396991;28;20599;-54
2021/06/29 22:04:14;;;;;;;5.43;2.00;;;;;;;;;;10396743;28;20146;-54
2021/06/29 22:09:20;;;;;;;6.50;1.90;;;;;;;;;;10385248;28;20140;-50
2021/06/29 22:14:26;;;;;;;7.18;2.08;;;;;;;;;;10388058;28;20511;-55
2021/06/29 22:19:33;;;;;;;6.13;1.90;;;;;;;;;;10409749;28;20057;-54
2021/06/29 22:24:40;;;;;;;7.25;2.03;;;;;;;;;;10406112;28;20559;-52
2021/06/29 22:29:46;;;;;;;5.10;1.90;;;;;;;;;;10411840;28;20111;-55
2021/06/29 22:34:53;;;;;;;10.70;2.10;;;;;;;;;;10410154;28;20497;-55
2021/06/29 22:39:59;;;;;;;10.13;2.35;;;;;;;;;;10411522;28;20077;-53
2021/06/29 22:45:06;;;;;;;6.55;2.20;;;;;;;;;;10433784;28;20072;-54
2021/06/29 22:50:13;;;;;;;12.27;2.40;;;;;;;;;;10432522;28;20080;-54
2021/06/29 22:55:19;;;;;;;6.25;2.05;;;;;;;;;;10379339;28;20111;-54
2021/06/29 23:00:27;;;;;;;6.18;2.05;;;;;;;;;;10422292;28;20057;-55
2021/06/29 23:05:34;;;;;;;5.30;2.17;;;;;;;;;;10408919;28;20054;-53
2021/06/29 23:10:41;;;;;;;7.35;2.15;;;;;;;;;;10421603;28;20119;-54
2021/06/29 23:15:48;;;;;;;7.07;2.63;;;;;;;;;;10408573;28;20088;-55
2021/06/29 23:20:54;;;;;;;8.43;2.10;;;;;;;;;;10408813;28;20077;-53
2021/06/29 23:26:01;;;;;;;11.82;2.30;;;;;;;;;;10407106;28;20473;-52
2021/06/29 23:31:07;;;;;;;8.77;2.40;;;;;;;;;;10408302;28;20405;-51
2021/06/29 23:36:14;;;;;;;6.28;2.28;;;;;;;;;;10407604;28;20532;-51
2021/06/29 23:41:21;;;;;;;5.13;2.08;;;;;;;;;;10408973;28;20136;-56
2021/06/29 23:46:28;;;;;;;7.75;2.20;;;;;;;;;;10408262;28;20536;-55
2021/06/29 23:51:35;;;;;;;7.22;2.03;;;;;;;;;;10408028;28;20128;-54
2021/06/29 23:56:41;;;;;;;4.55;2.00;;;;;;;;;;10407731;28;20107;-54
